createdAt,value
2018-02-18T00:00:18.164Z,99062.34
2018-02-18T00:02:45.696Z,99063.67
2018-02-18T00:05:13.333Z,99069.83
2018-02-18T00:07:40.807Z,99068.55
2018-02-18T00:10:08.279Z,99066.33
2018-02-18T00:12:35.748Z,99074.38
2018-02-18T00:15:05.036Z,99074.80
2018-02-18T00:17:32.537Z,99075.20
2018-02-18T00:19:59.986Z,99075.65
2018-02-18T00:22:27.685Z,99072.23
2018-02-18T00:24:55.158Z,99074.70
2018-02-18T00:27:22.618Z,99082.28
2018-02-18T00:29:50.120Z,99086.47
2018-02-18T00:32:17.729Z,99090.77
2018-02-18T00:34:45.315Z,99095.00
2018-02-18T00:37:12.898Z,99100.80
2018-02-18T00:39:40.358Z,99101.16
2018-02-18T00:42:11.957Z,99101.05
2018-02-18T00:44:42.497Z,99106.55
2018-02-18T00:47:09.974Z,99105.22
2018-02-18T00:49:37.506Z,99102.09
2018-02-18T00:52:05.502Z,99101.56
2018-02-18T00:54:32.985Z,99110.10
2018-02-18T00:57:00.650Z,99107.79
2018-02-18T00:59:28.268Z,99116.02
2018-02-18T01:01:55.775Z,99112.02
2018-02-18T01:04:23.351Z,99111.92
2018-02-18T01:06:50.807Z,99113.94
2018-02-18T01:09:18.310Z,99111.80
2018-02-18T01:11:45.833Z,99117.33
2018-02-18T01:14:13.292Z,99112.03
2018-02-18T01:16:40.864Z,99115.38
2018-02-18T01:19:08.498Z,99117.48
2018-02-18T01:21:36.898Z,99125.18
2018-02-18T01:24:04.576Z,99121.39
2018-02-18T01:26:34.524Z,99125.18
2018-02-18T01:29:02.051Z,99124.70
2018-02-18T01:31:29.509Z,99131.47
2018-02-18T01:33:56.986Z,99134.93
2018-02-18T01:36:24.448Z,99132.41
2018-02-18T01:38:51.935Z,99129.34
2018-02-18T01:41:19.387Z,99126.81
2018-02-18T01:43:46.851Z,99137.62
2018-02-18T01:46:14.305Z,99139.47
2018-02-18T01:48:41.776Z,99129.47
2018-02-18T01:51:09.226Z,99133.62
2018-02-18T01:53:36.719Z,99135.09
2018-02-18T01:56:04.211Z,99140.93
2018-02-18T01:58:31.667Z,99147.37
2018-02-18T02:00:59.129Z,99142.02
2018-02-18T02:03:26.597Z,99141.81
2018-02-18T02:05:54.100Z,99141.60
2018-02-18T02:08:21.552Z,99144.77
2018-02-18T02:10:49.027Z,99138.06
2018-02-18T02:13:16.479Z,99146.03
2018-02-18T02:15:43.980Z,99149.13
2018-02-18T02:18:11.441Z,99149.61
2018-02-18T02:20:38.950Z,99153.12
2018-02-18T02:23:06.491Z,99152.31
2018-02-18T02:25:33.961Z,99151.77
2018-02-18T02:28:01.429Z,99151.48
2018-02-18T02:30:28.931Z,99151.01
2018-02-18T02:32:56.396Z,99155.80
2018-02-18T02:35:23.857Z,99160.92
2018-02-18T02:37:51.336Z,99150.22
2018-02-18T02:40:18.788Z,99153.34
2018-02-18T02:42:46.229Z,99154.17
2018-02-18T02:45:13.683Z,99162.45
2018-02-18T02:47:42.136Z,99155.58
2018-02-18T02:50:09.608Z,99161.25
2018-02-18T02:52:37.079Z,99159.03
2018-02-18T02:55:04.550Z,99160.70
2018-02-18T02:57:33.975Z,99153.80
2018-02-18T03:00:01.483Z,99159.47
2018-02-18T03:02:28.938Z,99158.31
2018-02-18T03:04:56.390Z,99167.01
2018-02-18T03:07:23.887Z,99159.88
2018-02-18T03:09:51.342Z,99164.33
2018-02-18T03:12:18.791Z,99166.97
2018-02-18T03:14:46.256Z,99165.56
2018-02-18T03:17:13.713Z,99171.13
2018-02-18T03:19:41.194Z,99166.51
2018-02-18T03:22:08.644Z,99178.22
2018-02-18T03:24:36.107Z,99173.22
2018-02-18T03:27:03.559Z,99174.06
2018-02-18T03:29:31.556Z,99174.41
2018-02-18T03:31:59.011Z,99172.27
2018-02-18T03:34:26.481Z,99167.49
2018-02-18T03:36:53.938Z,99165.00
2018-02-18T03:39:21.396Z,99171.41
2018-02-18T03:41:48.848Z,99166.24
2018-02-18T03:44:16.297Z,99170.13
2018-02-18T03:46:43.749Z,99169.25
2018-02-18T03:49:12.224Z,99171.29
2018-02-18T03:51:39.689Z,99170.39
2018-02-18T03:54:07.144Z,99166.48
2018-02-18T03:56:34.582Z,99167.03
2018-02-18T03:59:02.063Z,99167.84
2018-02-18T04:01:29.528Z,99167.48
2018-02-18T04:03:56.983Z,99169.95
2018-02-18T04:06:24.453Z,99169.00
2018-02-18T04:08:51.906Z,99170.16
2018-02-18T04:11:19.368Z,99171.27
2018-02-18T04:13:46.856Z,99170.13
2018-02-18T04:16:14.306Z,99172.42
2018-02-18T04:18:41.772Z,99171.48
2018-02-18T04:21:09.214Z,99174.17
2018-02-18T04:23:36.676Z,99172.75
2018-02-18T04:26:04.129Z,99172.95
2018-02-18T04:28:31.595Z,99175.09
2018-02-18T04:30:59.042Z,99178.11
2018-02-18T04:33:26.503Z,99173.03
2018-02-18T04:35:53.948Z,99164.72
2018-02-18T04:38:21.416Z,99167.85
2018-02-18T04:40:48.878Z,99171.27
2018-02-18T04:43:16.332Z,99173.88
2018-02-18T04:45:43.817Z,99177.37
2018-02-18T04:48:11.303Z,99181.25
2018-02-18T04:50:38.746Z,99184.32
2018-02-18T04:53:06.212Z,99180.92
2018-02-18T04:55:33.683Z,99184.36
2018-02-18T04:58:01.152Z,99190.27
2018-02-18T05:00:28.616Z,99190.24
2018-02-18T05:02:56.075Z,99182.38
2018-02-18T05:05:23.526Z,99180.45
2018-02-18T05:07:50.986Z,99191.78
2018-02-18T05:10:18.442Z,99193.89
2018-02-18T05:12:45.898Z,99192.56
2018-02-18T05:15:13.347Z,99191.65
2018-02-18T05:17:40.812Z,99195.98
2018-02-18T05:20:08.264Z,99200.81
2018-02-18T05:22:35.727Z,99201.16
2018-02-18T05:25:03.247Z,99195.91
2018-02-18T05:27:30.694Z,99199.75
2018-02-18T05:29:59.202Z,99198.09
2018-02-18T05:32:26.688Z,99200.76
2018-02-18T05:34:54.130Z,99205.88
2018-02-18T05:37:21.590Z,99206.28
2018-02-18T05:39:49.052Z,99214.72
2018-02-18T05:42:16.509Z,99217.29
2018-02-18T05:44:43.967Z,99219.03
2018-02-18T05:47:11.424Z,99218.98
2018-02-18T05:49:38.883Z,99221.38
2018-02-18T05:52:06.338Z,99220.70
2018-02-18T05:54:33.796Z,99234.23
2018-02-18T05:57:01.253Z,99235.27
2018-02-18T05:59:28.721Z,99242.47
2018-02-18T06:01:56.194Z,99241.50
2018-02-18T06:04:23.706Z,99245.39
2018-02-18T06:06:51.166Z,99245.81
2018-02-18T06:09:18.634Z,99248.80
2018-02-18T06:11:46.089Z,99254.11
2018-02-18T06:14:13.536Z,99253.34
2018-02-18T06:16:41.032Z,99256.88
2018-02-18T06:19:08.482Z,99252.59
2018-02-18T06:21:35.940Z,99255.39
2018-02-18T06:24:03.390Z,99256.80
2018-02-18T06:26:30.846Z,99259.44
2018-02-18T06:28:58.303Z,99263.39
2018-02-18T06:31:25.763Z,99263.50
2018-02-18T06:33:53.252Z,99265.81
2018-02-18T06:36:20.704Z,99266.67
2018-02-18T06:38:48.144Z,99262.51
2018-02-18T06:41:15.609Z,99268.03
2018-02-18T06:43:43.061Z,99268.48
2018-02-18T06:46:10.530Z,99267.70
2018-02-18T06:48:37.982Z,99269.87
2018-02-18T06:51:05.431Z,99265.98
2018-02-18T06:53:32.891Z,99264.28
2018-02-18T06:56:00.370Z,99269.37
2018-02-18T06:58:27.848Z,99268.92
2018-02-18T07:00:55.299Z,99275.50
2018-02-18T07:03:22.759Z,99280.64
2018-02-18T07:05:50.200Z,99279.57
2018-02-18T07:08:17.674Z,99285.15
2018-02-18T07:10:45.129Z,99280.37
2018-02-18T07:13:12.587Z,99278.20
2018-02-18T07:15:40.047Z,99277.85
2018-02-18T07:18:07.538Z,99282.26
2018-02-18T07:20:35.010Z,99277.03
2018-02-18T07:23:02.476Z,99272.44
2018-02-18T07:25:29.980Z,99270.90
2018-02-18T07:27:57.461Z,99267.06
2018-02-18T07:30:24.924Z,99262.38
2018-02-18T07:32:52.373Z,99267.06
2018-02-18T07:35:19.837Z,99267.42
2018-02-18T07:37:47.293Z,99273.92
2018-02-18T07:40:14.752Z,99273.11
2018-02-18T07:42:42.208Z,99268.08
2018-02-18T07:45:10.036Z,99272.83
2018-02-18T07:47:37.490Z,99267.16
2018-02-18T07:50:04.952Z,99261.97
2018-02-18T07:52:32.423Z,99260.08
2018-02-18T07:55:00.052Z,99264.87
2018-02-18T07:57:27.758Z,99267.41
2018-02-18T07:59:55.201Z,99261.16
2018-02-18T08:02:22.671Z,99270.23
2018-02-18T08:04:50.130Z,99263.50
2018-02-18T08:07:17.599Z,99264.37
2018-02-18T08:09:45.063Z,99268.00
2018-02-18T08:12:12.516Z,99267.53
2018-02-18T08:14:39.984Z,99268.73
2018-02-18T08:17:07.443Z,99268.73
2018-02-18T08:19:34.902Z,99268.37
2018-02-18T08:22:02.362Z,99270.82
2018-02-18T08:24:29.811Z,99268.91
2018-02-18T08:26:57.266Z,99267.69
2018-02-18T08:29:24.826Z,99259.36
2018-02-18T08:31:52.691Z,99266.80
2018-02-18T08:34:20.142Z,99262.98
2018-02-18T08:36:47.606Z,99262.10
2018-02-18T08:39:15.116Z,99263.70
2018-02-18T08:41:43.163Z,99257.70
2018-02-18T08:44:10.629Z,99262.05
2018-02-18T08:46:38.100Z,99263.00
2018-02-18T08:49:05.572Z,99254.47
2018-02-18T08:51:33.030Z,99263.84
2018-02-18T08:54:00.656Z,99261.73
2018-02-18T08:56:28.126Z,99261.80
2018-02-18T08:58:55.653Z,99261.75
2018-02-18T09:01:23.448Z,99265.26
2018-02-18T09:03:50.897Z,99264.01
2018-02-18T09:06:18.358Z,99261.84
2018-02-18T09:08:45.806Z,99266.56
2018-02-18T09:11:13.366Z,99269.20
2018-02-18T09:13:40.843Z,99262.30
2018-02-18T09:16:08.302Z,99261.41
2018-02-18T09:18:35.766Z,99262.30
2018-02-18T09:21:03.221Z,99260.98
2018-02-18T09:23:31.374Z,99262.70
2018-02-18T09:25:58.871Z,99260.98
2018-02-18T09:28:26.333Z,99263.59
2018-02-18T09:30:54.553Z,99270.05
2018-02-18T09:33:22.242Z,99265.73
2018-02-18T09:35:51.026Z,99260.98
2018-02-18T09:38:18.492Z,99267.89
2018-02-18T09:40:47.998Z,99270.87
2018-02-18T09:43:17.012Z,99268.27
2018-02-18T09:45:44.830Z,99266.99
2018-02-18T09:48:13.699Z,99264.42
2018-02-18T09:50:41.149Z,99273.05
2018-02-18T09:53:08.631Z,99273.03
2018-02-18T09:55:37.130Z,99272.09
2018-02-18T09:58:04.587Z,99272.93
2018-02-18T10:00:34.250Z,99277.16
2018-02-18T10:03:01.773Z,99276.98
2018-02-18T10:05:29.290Z,99286.80
2018-02-18T10:07:56.722Z,99277.27
2018-02-18T10:10:24.318Z,99277.19
2018-02-18T10:12:51.787Z,99275.93
2018-02-18T10:15:19.291Z,99275.94
2018-02-18T10:17:46.883Z,99270.72
2018-02-18T10:20:15.432Z,99270.73
2018-02-18T10:22:42.997Z,99281.12
2018-02-18T10:25:10.465Z,99270.27
2018-02-18T10:27:37.951Z,99269.23
2018-02-18T10:30:05.893Z,99259.36
2018-02-18T10:32:33.410Z,99256.94
2018-02-18T10:35:00.961Z,99262.10
2018-02-18T10:37:28.433Z,99263.63
2018-02-18T10:39:56.155Z,99263.52
2018-02-18T10:42:23.671Z,99255.54
2018-02-18T10:44:51.126Z,99248.91
2018-02-18T10:47:22.278Z,99244.79
2018-02-18T10:49:49.766Z,99240.81
2018-02-18T10:52:17.231Z,99238.49
2018-02-18T10:54:44.698Z,99239.16
2018-02-18T10:57:12.340Z,99235.89
2018-02-18T10:59:39.791Z,99238.59
2018-02-18T11:02:07.260Z,99241.87
2018-02-18T11:04:35.619Z,99235.17
2018-02-18T11:07:03.192Z,99237.42
2018-02-18T11:09:30.663Z,99235.52
2018-02-18T11:11:58.119Z,99221.03
2018-02-18T11:14:25.566Z,99225.91
2018-02-18T11:16:53.043Z,99232.00
2018-02-18T11:19:20.496Z,99226.75
2018-02-18T11:21:47.950Z,99225.32
2018-02-18T11:24:15.432Z,99229.45
2018-02-18T11:26:42.925Z,99233.36
2018-02-18T11:29:10.378Z,99226.81
2018-02-18T11:31:37.832Z,99225.80
2018-02-18T11:34:05.288Z,99227.83
2018-02-18T11:36:32.751Z,99218.95
2018-02-18T11:39:00.213Z,99224.16
2018-02-18T11:41:27.698Z,99224.37
2018-02-18T11:43:55.179Z,99219.70
2018-02-18T11:46:22.639Z,99222.27
2018-02-18T11:48:50.109Z,99217.60
2018-02-18T11:51:17.573Z,99219.98
2018-02-18T11:53:45.029Z,99223.33
2018-02-18T11:56:12.519Z,99223.05
2018-02-18T11:58:39.992Z,99225.52
2018-02-18T12:01:07.451Z,99229.44
2018-02-18T12:03:34.954Z,99226.17
2018-02-18T12:06:03.480Z,99221.94
2018-02-18T12:08:30.946Z,99221.88
2018-02-18T12:10:58.390Z,99220.00
2018-02-18T12:13:29.031Z,99213.50
2018-02-18T12:15:56.745Z,99219.84
2018-02-18T12:18:25.932Z,99214.15
2018-02-18T12:20:53.816Z,99218.80
2018-02-18T12:23:22.232Z,99215.23
2018-02-18T12:25:49.696Z,99215.25
2018-02-18T12:28:17.145Z,99215.18
2018-02-18T12:30:44.630Z,99205.51
2018-02-18T12:33:13.357Z,99206.48
2018-02-18T12:35:40.863Z,99201.37
2018-02-18T12:38:09.490Z,99197.86
2018-02-18T12:40:37.097Z,99209.71
2018-02-18T12:43:04.578Z,99197.78
2018-02-18T12:45:32.038Z,99206.34
2018-02-18T12:47:59.506Z,99202.77
2018-02-18T12:50:27.442Z,99198.58
2018-02-18T12:52:54.940Z,99200.42
2018-02-18T12:55:22.396Z,99201.61
2018-02-18T12:57:50.011Z,99196.36
2018-02-18T13:00:17.534Z,99187.86
2018-02-18T13:02:46.278Z,99190.38
2018-02-18T13:05:14.901Z,99185.63
2018-02-18T13:07:43.415Z,99183.08
2018-02-18T13:10:10.914Z,99179.24
2018-02-18T13:12:38.628Z,99188.70
2018-02-18T13:15:06.769Z,99181.57
2018-02-18T13:17:34.239Z,99192.47
2018-02-18T13:20:01.710Z,99189.55
2018-02-18T13:22:29.817Z,99186.62
2018-02-18T13:24:57.294Z,99185.69
2018-02-18T13:27:26.212Z,99181.11
2018-02-18T13:29:54.273Z,99191.67
2018-02-18T13:32:21.769Z,99187.25
2018-02-18T13:34:51.431Z,99179.47
2018-02-18T13:37:19.180Z,99178.87
2018-02-18T13:39:46.699Z,99179.55
2018-02-18T13:42:14.254Z,99183.17
2018-02-18T13:44:41.744Z,99190.10
2018-02-18T13:47:09.210Z,99171.86
2018-02-18T13:49:37.100Z,99184.13
2018-02-18T13:52:04.781Z,99180.15
2018-02-18T13:54:32.306Z,99178.47
2018-02-18T13:56:59.788Z,99175.06
2018-02-18T13:59:27.277Z,99169.80
2018-02-18T14:01:55.544Z,99168.47
2018-02-18T14:04:24.284Z,99181.67
2018-02-18T14:06:51.745Z,99179.48
2018-02-18T14:09:19.239Z,99172.27
2018-02-18T14:11:46.729Z,99176.95
2018-02-18T14:14:15.022Z,99177.23
2018-02-18T14:16:42.491Z,99181.06
2018-02-18T14:19:09.965Z,99181.53
2018-02-18T14:21:37.410Z,99184.16
2018-02-18T14:24:05.341Z,99190.34
2018-02-18T14:26:33.436Z,99181.89
2018-02-18T14:29:00.951Z,99186.14
2018-02-18T14:31:29.612Z,99189.12
2018-02-18T14:33:57.172Z,99184.94
2018-02-18T14:36:24.620Z,99182.31
2018-02-18T14:38:53.315Z,99179.34
2018-02-18T14:41:32.670Z,99184.11
2018-02-18T14:44:12.119Z,99180.65
2018-02-18T14:46:51.436Z,99181.89
2018-02-18T14:49:30.732Z,99187.97
2018-02-18T14:52:10.335Z,99187.54
2018-02-18T14:57:42.457Z,99174.62
2018-02-18T15:00:09.988Z,99182.40
2018-02-18T15:02:37.477Z,99181.50
2018-02-18T15:05:04.941Z,99172.03
2018-02-18T15:07:32.446Z,99175.47
2018-02-18T15:09:59.897Z,99166.81
2018-02-18T15:12:27.430Z,99170.70
2018-02-18T15:14:54.907Z,99166.78
2018-02-18T15:17:22.396Z,99168.94
2018-02-18T15:19:49.861Z,99168.96
2018-02-18T15:22:17.341Z,99176.33
2018-02-18T15:24:44.799Z,99173.71
2018-02-18T15:27:12.250Z,99169.39
2018-02-18T15:29:39.704Z,99179.71
2018-02-18T15:32:07.187Z,99177.11
2018-02-18T15:34:34.695Z,99180.59
2018-02-18T15:37:02.155Z,99178.87
2018-02-18T15:39:29.632Z,99178.41
2018-02-18T15:41:57.110Z,99171.48
2018-02-18T15:44:24.560Z,99173.19
2018-02-18T15:46:52.115Z,99170.59
2018-02-18T15:49:19.561Z,99170.16
2018-02-18T15:51:47.035Z,99172.30
2018-02-18T15:54:14.490Z,99179.13
2018-02-18T15:56:42.031Z,99171.84
2018-02-18T15:59:09.512Z,99169.27
2018-02-18T16:01:36.969Z,99170.08
2018-02-18T16:04:04.421Z,99163.22
2018-02-18T16:06:31.901Z,99170.06
2018-02-18T16:08:59.361Z,99164.91
2018-02-18T16:11:26.870Z,99164.06
2018-02-18T16:13:54.334Z,99158.86
2018-02-18T16:16:21.832Z,99154.09
2018-02-18T16:18:49.291Z,99165.27
2018-02-18T16:21:16.773Z,99157.09
2018-02-18T16:23:44.267Z,99156.19
2018-02-18T16:26:11.723Z,99151.06
2018-02-18T16:28:39.530Z,99153.59
2018-02-18T16:31:07.705Z,99154.88
2018-02-18T16:33:35.325Z,99151.82
2018-02-18T16:36:02.843Z,99150.08
2018-02-18T16:38:31.362Z,99140.98
2018-02-18T16:40:59.072Z,99144.02
2018-02-18T16:43:26.606Z,99149.17
2018-02-18T16:45:54.077Z,99150.88
2018-02-18T16:48:21.523Z,99148.30
2018-02-18T16:50:48.974Z,99155.13
2018-02-18T16:53:16.445Z,99156.42
2018-02-18T16:55:44.266Z,99156.02
2018-02-18T16:58:11.990Z,99147.77
2018-02-18T17:00:39.830Z,99158.90
2018-02-18T17:03:07.328Z,99155.45
2018-02-18T17:05:35.312Z,99154.11
2018-02-18T17:08:02.955Z,99158.84
2018-02-18T17:10:30.414Z,99158.81
2018-02-18T17:12:57.874Z,99160.95
2018-02-18T17:15:26.432Z,99159.65
2018-02-18T17:17:54.554Z,99154.95
2018-02-18T17:20:22.111Z,99158.84
2018-02-18T17:22:49.643Z,99152.80
2018-02-18T17:25:17.906Z,99152.80
2018-02-18T17:27:45.423Z,99151.52
2018-02-18T17:30:13.990Z,99159.65
2018-02-18T17:32:41.533Z,99159.65
2018-02-18T17:35:09.005Z,99162.69
2018-02-18T17:37:37.154Z,99162.66
2018-02-18T17:40:07.874Z,99164.34
2018-02-18T17:42:38.855Z,99157.03
2018-02-18T17:45:06.514Z,99153.16
2018-02-18T17:47:34.343Z,99152.34
2018-02-18T17:50:01.850Z,99152.79
2018-02-18T17:52:29.293Z,99158.38
2018-02-18T17:54:56.768Z,99158.84
2018-02-18T17:57:24.276Z,99153.66
2018-02-18T17:59:51.706Z,99158.89
2018-02-18T18:02:19.176Z,99147.68
2018-02-18T18:04:46.619Z,99145.13
2018-02-18T18:07:14.326Z,99141.27
2018-02-18T18:09:41.773Z,99138.67
2018-02-18T18:12:09.231Z,99137.83
2018-02-18T18:14:36.747Z,99137.38
2018-02-18T18:17:04.276Z,99130.95
2018-02-18T18:19:31.737Z,99129.17
2018-02-18T18:21:59.229Z,99125.77
2018-02-18T18:24:26.694Z,99127.48
2018-02-18T18:26:54.198Z,99128.81
2018-02-18T18:29:21.734Z,99123.13
2018-02-18T18:31:49.200Z,99124.48
2018-02-18T18:34:16.865Z,99121.04
2018-02-18T18:36:45.546Z,99130.55
2018-02-18T18:39:13.050Z,99126.16
2018-02-18T18:41:40.808Z,99120.56
2018-02-18T18:44:08.681Z,99111.06
2018-02-18T18:46:36.301Z,99111.11
2018-02-18T18:49:03.795Z,99107.20
2018-02-18T18:51:31.278Z,99102.92
2018-02-18T18:53:58.734Z,99102.04
2018-02-18T18:56:26.190Z,99102.05
2018-02-18T18:58:54.177Z,99099.09
2018-02-18T19:01:22.048Z,99098.20
2018-02-18T19:03:49.918Z,99092.24
2018-02-18T19:06:17.579Z,99094.33
2018-02-18T19:08:45.044Z,99091.34
2018-02-18T19:11:12.737Z,99089.17
2018-02-18T19:13:40.378Z,99086.59
2018-02-18T19:16:11.249Z,99088.41
2018-02-18T19:18:38.848Z,99089.22
2018-02-18T19:21:06.417Z,99083.18
2018-02-18T19:23:33.870Z,99072.84
2018-02-18T19:26:01.907Z,99075.46
2018-02-18T19:28:29.384Z,99067.27
2018-02-18T19:30:57.060Z,99063.81
2018-02-18T19:33:24.529Z,99057.33
2018-02-18T19:35:52.036Z,99068.56
2018-02-18T19:38:22.972Z,99058.23
2018-02-18T19:40:50.639Z,99059.06
2018-02-18T19:43:18.423Z,99058.24
2018-02-18T19:45:45.876Z,99061.25
2018-02-18T19:48:13.394Z,99056.92
2018-02-18T19:50:41.181Z,99061.18
2018-02-18T19:53:17.565Z,99058.61
2018-02-18T19:55:45.110Z,99056.89
2018-02-18T19:58:12.782Z,99053.47
2018-02-18T20:00:40.416Z,99053.91
2018-02-18T20:03:07.990Z,99046.20
2018-02-18T20:05:35.468Z,99038.88
2018-02-18T20:08:08.904Z,99040.13
2018-02-18T20:10:36.457Z,99047.47
2018-02-18T20:13:03.898Z,99043.56
2018-02-18T20:15:31.426Z,99044.03
2018-02-18T20:17:58.990Z,99043.61
2018-02-18T20:20:26.896Z,99034.55
2018-02-18T20:22:59.692Z,99036.27
2018-02-18T20:25:27.431Z,99023.80
2018-02-18T20:27:55.072Z,99024.22
2018-02-18T20:30:23.538Z,99012.19
2018-02-18T20:32:50.995Z,99007.88
2018-02-18T20:35:18.972Z,99004.44
2018-02-18T20:37:47.101Z,99000.95
2018-02-18T20:40:14.703Z,98998.77
2018-02-18T20:42:42.158Z,98993.66
2018-02-18T20:45:11.717Z,98998.80
2018-02-18T20:47:39.163Z,98997.52
2018-02-18T20:50:06.678Z,98993.20
2018-02-18T20:52:34.151Z,98979.82
2018-02-18T20:55:01.594Z,98975.56
2018-02-18T20:57:29.058Z,98977.30
2018-02-18T20:59:56.515Z,98975.94
2018-02-18T21:02:24.126Z,98982.03
2018-02-18T21:04:51.572Z,98976.33
2018-02-18T21:07:19.049Z,98978.95
2018-02-18T21:09:46.512Z,98969.47
2018-02-18T21:12:14.273Z,98964.31
2018-02-18T21:14:41.739Z,98972.05
2018-02-18T21:17:09.243Z,98965.61
2018-02-18T21:19:36.750Z,98975.09
2018-02-18T21:22:04.241Z,98967.80
2018-02-18T21:24:31.788Z,98966.91
2018-02-18T21:26:59.320Z,98974.25
2018-02-18T21:29:26.823Z,98973.41
2018-02-18T21:31:54.280Z,98972.10
2018-02-18T21:34:21.726Z,98975.95
2018-02-18T21:36:49.195Z,98975.13
2018-02-18T21:39:16.661Z,98970.38
2018-02-18T21:41:44.274Z,98978.53
2018-02-18T21:44:11.794Z,98974.64
2018-02-18T21:46:39.326Z,98974.22
2018-02-18T21:49:06.862Z,98966.05
2018-02-18T21:51:34.336Z,98973.36
2018-02-18T21:54:01.856Z,98962.16
2018-02-18T21:56:29.324Z,98968.21
2018-02-18T21:58:56.793Z,98965.20
2018-02-18T22:01:24.281Z,98964.33
2018-02-18T22:03:51.745Z,98967.34
2018-02-18T22:06:19.206Z,98960.87
2018-02-18T22:08:46.676Z,98963.47
2018-02-18T22:11:14.128Z,98962.16
2018-02-18T22:13:41.606Z,98956.13
2018-02-18T22:16:09.131Z,98957.02
2018-02-18T22:18:36.889Z,98954.45
2018-02-18T22:21:04.410Z,98949.67
2018-02-18T22:23:31.932Z,98952.25
2018-02-18T22:25:59.708Z,98952.28
2018-02-18T22:28:27.294Z,98947.95
2018-02-18T22:30:54.768Z,98948.42
2018-02-18T22:33:22.220Z,98946.25
2018-02-18T22:35:52.504Z,98939.34
2018-02-18T22:38:19.995Z,98939.34
2018-02-18T22:40:47.463Z,98937.17
2018-02-18T22:43:15.255Z,98945.79
2018-02-18T22:45:42.698Z,98939.80
2018-02-18T22:48:10.170Z,98932.02
2018-02-18T22:50:37.618Z,98937.64
2018-02-18T22:53:05.078Z,98933.32
2018-02-18T22:55:32.533Z,98939.77
2018-02-18T22:57:59.982Z,98939.30
2018-02-18T23:00:27.486Z,98940.22
2018-02-18T23:02:55.021Z,98940.17
2018-02-18T23:05:28.062Z,98937.12
2018-02-18T23:07:55.524Z,98938.03
2018-02-18T23:10:22.999Z,98933.72
2018-02-18T23:12:50.441Z,98930.30
2018-02-18T23:15:17.891Z,98928.59
2018-02-18T23:17:45.362Z,98924.30
2018-02-18T23:20:12.828Z,98923.44
2018-02-18T23:22:40.294Z,98919.56
2018-02-18T23:25:07.749Z,98926.86
2018-02-18T23:27:35.268Z,98914.39
2018-02-18T23:30:03.349Z,98911.37
2018-02-18T23:32:30.842Z,98911.39
2018-02-18T23:34:58.312Z,98916.52
2018-02-18T23:37:25.758Z,98918.25
2018-02-18T23:39:53.199Z,98913.51
2018-02-18T23:42:20.670Z,98906.20
2018-02-18T23:44:48.211Z,98902.32
2018-02-18T23:47:15.704Z,98907.47
2018-02-18T23:49:43.161Z,98907.89
2018-02-18T23:52:10.611Z,98903.58
2018-02-18T23:54:38.072Z,98903.61
2018-02-18T23:57:05.521Z,98910.08
2018-02-18T23:59:32.997Z,98906.62
